sensor_id;sensor_type;location;lat;lon;timestamp;pressure;altitude;pressure_sealevel;temperature;humidity
36502;BME280;25393;46.108;3.390;2023-04-27T00:00:53;97950.28;;;13.53;100.00
36502;BME280;25393;46.108;3.390;2023-04-27T00:03:20;97952.00;;;13.61;100.00
36502;BME280;25393;46.108;3.390;2023-04-27T00:05:47;97951.84;;;13.47;100.00
36502;BME280;25393;46.108;3.390;2023-04-27T00:08:14;97959.50;;;13.36;100.00
36502;BME280;25393;46.108;3.390;2023-04-27T00:10:41;97963.28;;;13.27;100.00
36502;BME280;25393;46.108;3.390;2023-04-27T00:13:08;97960.56;;;13.20;100.00
36502;BME280;25393;46.108;3.390;2023-04-27T00:15:35;97972.13;;;13.13;100.00
36502;BME280;25393;46.108;3.390;2023-04-27T00:18:01;97966.69;;;13.06;100.00
36502;BME280;25393;46.108;3.390;2023-04-27T00:20:28;97969.94;;;13.01;100.00
36502;BME280;25393;46.108;3.390;2023-04-27T00:22:54;97963.78;;;12.86;100.00
36502;BME280;25393;46.108;3.390;2023-04-27T00:25:22;97961.31;;;12.85;100.00
36502;BME280;25393;46.108;3.390;2023-04-27T00:27:48;97961.50;;;12.83;100.00
36502;BME280;25393;46.108;3.390;2023-04-27T00:30:16;97964.03;;;13.06;100.00
36502;BME280;25393;46.108;3.390;2023-04-27T00:32:43;97966.53;;;12.93;100.00
36502;BME280;25393;46.108;3.390;2023-04-27T00:35:10;97961.44;;;12.77;100.00
36502;BME280;25393;46.108;3.390;2023-04-27T00:37:36;97960.22;;;12.65;100.00
36502;BME280;25393;46.108;3.390;2023-04-27T00:40:04;97963.63;;;12.59;100.00
36502;BME280;25393;46.108;3.390;2023-04-27T00:42:33;97958.09;;;12.60;100.00
36502;BME280;25393;46.108;3.390;2023-04-27T00:45:01;97961.97;;;12.58;100.00
36502;BME280;25393;46.108;3.390;2023-04-27T00:47:29;97961.69;;;12.52;100.00
36502;BME280;25393;46.108;3.390;2023-04-27T00:49:56;97962.34;;;12.55;100.00
36502;BME280;25393;46.108;3.390;2023-04-27T00:52:22;97961.97;;;12.58;100.00
36502;BME280;25393;46.108;3.390;2023-04-27T00:54:50;97959.69;;;12.55;100.00
36502;BME280;25393;46.108;3.390;2023-04-27T00:57:17;97962.63;;;12.45;100.00
36502;BME280;25393;46.108;3.390;2023-04-27T00:59:44;97948.31;;;12.31;100.00
36502;BME280;25393;46.108;3.390;2023-04-27T01:02:11;97952.41;;;12.19;100.00
36502;BME280;25393;46.108;3.390;2023-04-27T01:04:39;97951.00;;;12.09;100.00
36502;BME280;25393;46.108;3.390;2023-04-27T01:07:06;97958.97;;;12.09;100.00
36502;BME280;25393;46.108;3.390;2023-04-27T01:09:33;97958.16;;;12.08;100.00
36502;BME280;25393;46.108;3.390;2023-04-27T01:12:00;97958.69;;;12.03;100.00
36502;BME280;25393;46.108;3.390;2023-04-27T01:14:26;97943.59;;;12.19;100.00
36502;BME280;25393;46.108;3.390;2023-04-27T01:16:53;97955.69;;;12.21;100.00
36502;BME280;25393;46.108;3.390;2023-04-27T01:19:19;97949.31;;;12.45;100.00
36502;BME280;25393;46.108;3.390;2023-04-27T01:21:46;97949.22;;;12.24;100.00
36502;BME280;25393;46.108;3.390;2023-04-27T01:24:15;97945.59;;;12.02;100.00
36502;BME280;25393;46.108;3.390;2023-04-27T01:26:42;97945.66;;;11.94;100.00
36502;BME280;25393;46.108;3.390;2023-04-27T01:29:08;97944.66;;;11.95;100.00
36502;BME280;25393;46.108;3.390;2023-04-27T01:31:35;97953.47;;;11.95;100.00
36502;BME280;25393;46.108;3.390;2023-04-27T01:34:01;97938.69;;;11.93;100.00
36502;BME280;25393;46.108;3.390;2023-04-27T01:36:28;97944.72;;;11.87;100.00
36502;BME280;25393;46.108;3.390;2023-04-27T01:38:55;97940.75;;;11.83;100.00
36502;BME280;25393;46.108;3.390;2023-04-27T01:41:21;97949.81;;;11.74;100.00
36502;BME280;25393;46.108;3.390;2023-04-27T01:43:52;97948.81;;;11.75;100.00
36502;BME280;25393;46.108;3.390;2023-04-27T01:46:22;97944.88;;;11.63;100.00
36502;BME280;25393;46.108;3.390;2023-04-27T01:48:51;97952.63;;;11.72;100.00
36502;BME280;25393;46.108;3.390;2023-04-27T01:51:18;97946.75;;;11.85;100.00
36502;BME280;25393;46.108;3.390;2023-04-27T01:53:50;97948.47;;;11.70;100.00
36502;BME280;25393;46.108;3.390;2023-04-27T01:56:17;97935.34;;;11.53;100.00
36502;BME280;25393;46.108;3.390;2023-04-27T01:58:43;97940.66;;;11.76;100.00
36502;BME280;25393;46.108;3.390;2023-04-27T02:01:10;97937.28;;;11.60;100.00
36502;BME280;25393;46.108;3.390;2023-04-27T02:03:36;97935.94;;;11.64;100.00
36502;BME280;25393;46.108;3.390;2023-04-27T02:06:03;97947.78;;;11.53;100.00
36502;BME280;25393;46.108;3.390;2023-04-27T02:08:30;97944.19;;;11.46;100.00
36502;BME280;25393;46.108;3.390;2023-04-27T02:10:56;97946.94;;;11.30;100.00
36502;BME280;25393;46.108;3.390;2023-04-27T02:13:23;97928.78;;;11.19;100.00
36502;BME280;25393;46.108;3.390;2023-04-27T02:15:49;97939.56;;;11.17;100.00
36502;BME280;25393;46.108;3.390;2023-04-27T02:18:18;97945.81;;;11.24;100.00
36502;BME280;25393;46.108;3.390;2023-04-27T02:20:45;97938.50;;;11.26;100.00
36502;BME280;25393;46.108;3.390;2023-04-27T02:23:11;97929.34;;;11.06;100.00
36502;BME280;25393;46.108;3.390;2023-04-27T02:25:38;97938.13;;;11.07;100.00
36502;BME280;25393;46.108;3.390;2023-04-27T02:28:08;97936.53;;;10.97;100.00
36502;BME280;25393;46.108;3.390;2023-04-27T02:30:35;97942.13;;;11.02;100.00
36502;BME280;25393;46.108;3.390;2023-04-27T02:33:02;97950.00;;;11.19;100.00
36502;BME280;25393;46.108;3.390;2023-04-27T02:35:28;97937.13;;;11.08;100.00
36502;BME280;25393;46.108;3.390;2023-04-27T02:37:58;97957.16;;;11.10;100.00
36502;BME280;25393;46.108;3.390;2023-04-27T02:40:24;97946.16;;;11.21;100.00
36502;BME280;25393;46.108;3.390;2023-04-27T02:42:51;97946.88;;;11.38;100.00
36502;BME280;25393;46.108;3.390;2023-04-27T02:45:19;97955.72;;;11.30;100.00
36502;BME280;25393;46.108;3.390;2023-04-27T02:47:46;97946.59;;;11.33;100.00
36502;BME280;25393;46.108;3.390;2023-04-27T02:50:13;97945.69;;;11.40;100.00
36502;BME280;25393;46.108;3.390;2023-04-27T02:52:39;97950.88;;;11.34;100.00
36502;BME280;25393;46.108;3.390;2023-04-27T02:55:06;97951.31;;;11.45;100.00
36502;BME280;25393;46.108;3.390;2023-04-27T02:57:32;97950.91;;;11.57;100.00
36502;BME280;25393;46.108;3.390;2023-04-27T02:59:59;97942.94;;;11.57;100.00
36502;BME280;25393;46.108;3.390;2023-04-27T03:02:26;97949.97;;;11.49;100.00
36502;BME280;25393;46.108;3.390;2023-04-27T03:04:54;97945.81;;;11.47;100.00
36502;BME280;25393;46.108;3.390;2023-04-27T03:07:21;97952.25;;;11.52;100.00
36502;BME280;25393;46.108;3.390;2023-04-27T03:09:48;97939.00;;;11.52;100.00
36502;BME280;25393;46.108;3.390;2023-04-27T03:12:14;97948.25;;;11.57;100.00
36502;BME280;25393;46.108;3.390;2023-04-27T03:14:41;97948.78;;;11.52;100.00
36502;BME280;25393;46.108;3.390;2023-04-27T03:17:07;97947.59;;;11.54;100.00
36502;BME280;25393;46.108;3.390;2023-04-27T03:19:34;97950.56;;;11.60;100.00
36502;BME280;25393;46.108;3.390;2023-04-27T03:22:00;97946.16;;;11.44;100.00
36502;BME280;25393;46.108;3.390;2023-04-27T03:24:27;97947.38;;;11.41;100.00
36502;BME280;25393;46.108;3.390;2023-04-27T03:26:53;97953.97;;;11.45;100.00
36502;BME280;25393;46.108;3.390;2023-04-27T03:29:22;97942.13;;;11.56;100.00
36502;BME280;25393;46.108;3.390;2023-04-27T03:31:48;97949.84;;;11.66;100.00
36502;BME280;25393;46.108;3.390;2023-04-27T03:34:15;97941.53;;;11.46;100.00
36502;BME280;25393;46.108;3.390;2023-04-27T03:36:42;97938.09;;;11.37;100.00
36502;BME280;25393;46.108;3.390;2023-04-27T03:39:08;97936.88;;;11.25;100.00
36502;BME280;25393;46.108;3.390;2023-04-27T03:41:35;97939.41;;;11.19;100.00
36502;BME280;25393;46.108;3.390;2023-04-27T03:44:01;97937.06;;;11.16;100.00
36502;BME280;25393;46.108;3.390;2023-04-27T03:46:28;97937.25;;;11.14;100.00
36502;BME280;25393;46.108;3.390;2023-04-27T03:48:55;97930.81;;;11.09;100.00
36502;BME280;25393;46.108;3.390;2023-04-27T03:51:24;97940.38;;;11.18;100.00
36502;BME280;25393;46.108;3.390;2023-04-27T03:53:50;97936.56;;;11.20;100.00
36502;BME280;25393;46.108;3.390;2023-04-27T03:56:17;97936.03;;;11.25;100.00
36502;BME280;25393;46.108;3.390;2023-04-27T03:58:44;97932.72;;;11.23;100.00
36502;BME280;25393;46.108;3.390;2023-04-27T04:01:12;97934.22;;;11.25;100.00
36502;BME280;25393;46.108;3.390;2023-04-27T04:03:39;97940.19;;;11.19;100.00
36502;BME280;25393;46.108;3.390;2023-04-27T04:06:07;97932.19;;;11.05;100.00
36502;BME280;25393;46.108;3.390;2023-04-27T04:08:33;97930.75;;;10.94;100.00
36502;BME280;25393;46.108;3.390;2023-04-27T04:11:00;97923.47;;;10.88;100.00
36502;BME280;25393;46.108;3.390;2023-04-27T04:13:27;97932.38;;;10.95;100.00
36502;BME280;25393;46.108;3.390;2023-04-27T04:16:04;97933.91;;;10.89;100.00
36502;BME280;25393;46.108;3.390;2023-04-27T04:18:32;97926.81;;;10.82;100.00
36502;BME280;25393;46.108;3.390;2023-04-27T04:21:02;97930.44;;;10.81;100.00
36502;BME280;25393;46.108;3.390;2023-04-27T04:23:29;97910.94;;;10.74;100.00
36502;BME280;25393;46.108;3.390;2023-04-27T04:25:55;97927.66;;;10.74;100.00
36502;BME280;25393;46.108;3.390;2023-04-27T04:28:24;97940.16;;;10.66;100.00
36502;BME280;25393;46.108;3.390;2023-04-27T04:30:50;97927.56;;;10.60;100.00
36502;BME280;25393;46.108;3.390;2023-04-27T04:33:17;97929.84;;;10.63;100.00
36502;BME280;25393;46.108;3.390;2023-04-27T04:35:44;97928.03;;;10.63;100.00
36502;BME280;25393;46.108;3.390;2023-04-27T04:38:11;97939.63;;;10.70;100.00
36502;BME280;25393;46.108;3.390;2023-04-27T04:40:39;97944.41;;;10.75;100.00
36502;BME280;25393;46.108;3.390;2023-04-27T04:43:06;97939.09;;;10.75;100.00
36502;BME280;25393;46.108;3.390;2023-04-27T04:45:32;97935.84;;;10.65;100.00
36502;BME280;25393;46.108;3.390;2023-04-27T04:48:02;97941.75;;;10.75;100.00
36502;BME280;25393;46.108;3.390;2023-04-27T04:50:33;97940.44;;;10.71;100.00
36502;BME280;25393;46.108;3.390;2023-04-27T04:53:03;97942.13;;;10.64;100.00
36502;BME280;25393;46.108;3.390;2023-04-27T04:55:33;97943.75;;;10.73;100.00
36502;BME280;25393;46.108;3.390;2023-04-27T04:58:02;97940.78;;;10.68;100.00
36502;BME280;25393;46.108;3.390;2023-04-27T05:00:29;97948.03;;;10.74;100.00
36502;BME280;25393;46.108;3.390;2023-04-27T05:02:56;97945.41;;;10.74;100.00
36502;BME280;25393;46.108;3.390;2023-04-27T05:05:24;97943.22;;;10.77;100.00
36502;BME280;25393;46.108;3.390;2023-04-27T05:07:50;97946.19;;;10.82;100.00
36502;BME280;25393;46.108;3.390;2023-04-27T05:10:17;97943.19;;;10.85;100.00
36502;BME280;25393;46.108;3.390;2023-04-27T05:12:43;97954.78;;;10.92;100.00
36502;BME280;25393;46.108;3.390;2023-04-27T05:15:10;97949.00;;;10.81;100.00
36502;BME280;25393;46.108;3.390;2023-04-27T05:17:37;97956.31;;;10.79;100.00
36502;BME280;25393;46.108;3.390;2023-04-27T05:20:04;97944.06;;;10.78;100.00
36502;BME280;25393;46.108;3.390;2023-04-27T05:22:34;97951.97;;;10.86;100.00
36502;BME280;25393;46.108;3.390;2023-04-27T05:25:04;97954.06;;;10.98;100.00
36502;BME280;25393;46.108;3.390;2023-04-27T05:27:32;97929.25;;;10.91;100.00
36502;BME280;25393;46.108;3.390;2023-04-27T05:29:59;97948.16;;;11.19;100.00
36502;BME280;25393;46.108;3.390;2023-04-27T05:32:27;97944.00;;;11.25;100.00
36502;BME280;25393;46.108;3.390;2023-04-27T05:34:53;97945.94;;;11.31;100.00
36502;BME280;25393;46.108;3.390;2023-04-27T05:37:20;97950.25;;;11.32;100.00
36502;BME280;25393;46.108;3.390;2023-04-27T05:39:46;97947.19;;;11.43;100.00
36502;BME280;25393;46.108;3.390;2023-04-27T05:42:13;97943.84;;;11.49;100.00
36502;BME280;25393;46.108;3.390;2023-04-27T05:44:39;97948.66;;;11.45;100.00
36502;BME280;25393;46.108;3.390;2023-04-27T05:47:06;97948.94;;;11.50;100.00
36502;BME280;25393;46.108;3.390;2023-04-27T05:49:32;97936.16;;;11.54;100.00
36502;BME280;25393;46.108;3.390;2023-04-27T05:51:59;97937.81;;;11.55;100.00
36502;BME280;25393;46.108;3.390;2023-04-27T05:54:33;97950.38;;;11.61;100.00
36502;BME280;25393;46.108;3.390;2023-04-27T05:57:00;97941.75;;;11.59;100.00
36502;BME280;25393;46.108;3.390;2023-04-27T05:59:33;97942.88;;;11.65;100.00
36502;BME280;25393;46.108;3.390;2023-04-27T06:02:01;97948.81;;;11.75;100.00
36502;BME280;25393;46.108;3.390;2023-04-27T06:04:28;97949.03;;;11.88;100.00
36502;BME280;25393;46.108;3.390;2023-04-27T06:06:55;97950.44;;;11.98;100.00
36502;BME280;25393;46.108;3.390;2023-04-27T06:09:21;97952.00;;;12.08;100.00
36502;BME280;25393;46.108;3.390;2023-04-27T06:11:48;97952.22;;;12.21;100.00
36502;BME280;25393;46.108;3.390;2023-04-27T06:14:14;97956.00;;;12.41;100.00
36502;BME280;25393;46.108;3.390;2023-04-27T06:16:41;97946.94;;;12.65;100.00
36502;BME280;25393;46.108;3.390;2023-04-27T06:19:08;97946.47;;;12.90;100.00
36502;BME280;25393;46.108;3.390;2023-04-27T06:21:35;97944.97;;;13.17;100.00
36502;BME280;25393;46.108;3.390;2023-04-27T06:24:04;97937.22;;;13.37;100.00
36502;BME280;25393;46.108;3.390;2023-04-27T06:26:34;97926.75;;;13.35;100.00
36502;BME280;25393;46.108;3.390;2023-04-27T06:29:04;97937.84;;;13.39;100.00
36502;BME280;25393;46.108;3.390;2023-04-27T06:31:33;97939.81;;;13.51;100.00
36502;BME280;25393;46.108;3.390;2023-04-27T06:34:00;97956.50;;;13.60;100.00
36502;BME280;25393;46.108;3.390;2023-04-27T06:36:27;97950.97;;;13.62;100.00
36502;BME280;25393;46.108;3.390;2023-04-27T06:38:54;97950.50;;;13.79;100.00
36502;BME280;25393;46.108;3.390;2023-04-27T06:41:23;97956.22;;;13.97;100.00
36502;BME280;25393;46.108;3.390;2023-04-27T06:43:49;97965.97;;;14.12;100.00
36502;BME280;25393;46.108;3.390;2023-04-27T06:46:16;97968.16;;;14.29;100.00
36502;BME280;25393;46.108;3.390;2023-04-27T06:48:43;97970.91;;;14.36;100.00
36502;BME280;25393;46.108;3.390;2023-04-27T06:51:09;97947.78;;;14.43;100.00
36502;BME280;25393;46.108;3.390;2023-04-27T06:53:36;97962.56;;;14.73;100.00
36502;BME280;25393;46.108;3.390;2023-04-27T06:56:02;97952.19;;;14.91;100.00
36502;BME280;25393;46.108;3.390;2023-04-27T06:58:29;97965.66;;;15.24;100.00
36502;BME280;25393;46.108;3.390;2023-04-27T07:00:58;97955.69;;;15.53;97.59
36502;BME280;25393;46.108;3.390;2023-04-27T07:03:24;97961.31;;;15.84;95.88
36502;BME280;25393;46.108;3.390;2023-04-27T07:05:52;97952.50;;;16.03;93.88
36502;BME280;25393;46.108;3.390;2023-04-27T07:08:19;97945.06;;;16.12;92.62
36502;BME280;25393;46.108;3.390;2023-04-27T07:10:46;97947.53;;;16.26;89.77
36502;BME280;25393;46.108;3.390;2023-04-27T07:13:13;97941.97;;;16.47;90.41
36502;BME280;25393;46.108;3.390;2023-04-27T07:15:39;97946.91;;;16.64;85.41
36502;BME280;25393;46.108;3.390;2023-04-27T07:18:06;97947.94;;;16.69;85.83
36502;BME280;25393;46.108;3.390;2023-04-27T07:20:36;97944.22;;;16.77;87.10
36502;BME280;25393;46.108;3.390;2023-04-27T07:23:03;97945.56;;;17.06;85.85
36502;BME280;25393;46.108;3.390;2023-04-27T07:25:30;97931.09;;;17.20;82.42
36502;BME280;25393;46.108;3.390;2023-04-27T07:27:59;97932.81;;;17.39;81.09
36502;BME280;25393;46.108;3.390;2023-04-27T07:30:26;97947.31;;;17.69;77.95
36502;BME280;25393;46.108;3.390;2023-04-27T07:32:56;97942.00;;;17.94;79.11
36502;BME280;25393;46.108;3.390;2023-04-27T07:35:23;97921.78;;;18.16;77.76
36502;BME280;25393;46.108;3.390;2023-04-27T07:37:49;97941.38;;;18.66;75.45
36502;BME280;25393;46.108;3.390;2023-04-27T07:40:17;97925.56;;;18.94;72.67
36502;BME280;25393;46.108;3.390;2023-04-27T07:42:44;97924.66;;;19.01;70.03
36502;BME280;25393;46.108;3.390;2023-04-27T07:45:13;97922.88;;;18.76;73.45
36502;BME280;25393;46.108;3.390;2023-04-27T07:47:42;97925.84;;;18.68;74.65
36502;BME280;25393;46.108;3.390;2023-04-27T07:50:09;97915.28;;;18.73;75.85
36502;BME280;25393;46.108;3.390;2023-04-27T07:52:36;97914.63;;;18.78;73.87
36502;BME280;25393;46.108;3.390;2023-04-27T07:55:06;97897.91;;;18.76;72.91
36502;BME280;25393;46.108;3.390;2023-04-27T07:57:36;97915.22;;;18.98;71.11
36502;BME280;25393;46.108;3.390;2023-04-27T08:00:06;97910.72;;;19.10;69.37
36502;BME280;25393;46.108;3.390;2023-04-27T08:02:35;97919.19;;;19.43;70.30
36502;BME280;25393;46.108;3.390;2023-04-27T08:05:05;97916.25;;;19.63;68.74
36502;BME280;25393;46.108;3.390;2023-04-27T08:07:35;97920.06;;;19.97;69.18
36502;BME280;25393;46.108;3.390;2023-04-27T08:10:09;97914.94;;;20.07;66.85
36502;BME280;25393;46.108;3.390;2023-04-27T08:12:36;97917.13;;;19.99;65.43
36502;BME280;25393;46.108;3.390;2023-04-27T08:15:06;97912.72;;;20.16;65.86
36502;BME280;25393;46.108;3.390;2023-04-27T08:17:33;97903.53;;;20.47;66.46
36502;BME280;25393;46.108;3.390;2023-04-27T08:20:06;97914.41;;;20.40;63.60
36502;BME280;25393;46.108;3.390;2023-04-27T08:22:39;97915.22;;;20.52;66.39
36502;BME280;25393;46.108;3.390;2023-04-27T08:25:07;97920.34;;;20.77;63.34
36502;BME280;25393;46.108;3.390;2023-04-27T08:27:38;97915.50;;;20.90;62.85
36502;BME280;25393;46.108;3.390;2023-04-27T08:30:05;97910.13;;;20.90;64.26
36502;BME280;25393;46.108;3.390;2023-04-27T08:32:35;97913.91;;;20.66;62.28
36502;BME280;25393;46.108;3.390;2023-04-27T08:35:05;97906.78;;;20.60;62.93
36502;BME280;25393;46.108;3.390;2023-04-27T08:37:35;97905.16;;;20.48;63.93
36502;BME280;25393;46.108;3.390;2023-04-27T08:40:04;97908.31;;;20.33;62.31
36502;BME280;25393;46.108;3.390;2023-04-27T08:42:37;97894.91;;;20.03;64.83
36502;BME280;25393;46.108;3.390;2023-04-27T08:45:06;97895.34;;;19.88;63.72
36502;BME280;25393;46.108;3.390;2023-04-27T08:47:33;97891.69;;;19.60;65.24
36502;BME280;25393;46.108;3.390;2023-04-27T08:50:10;97897.06;;;19.60;66.33
36502;BME280;25393;46.108;3.390;2023-04-27T08:52:36;97877.47;;;19.41;65.64
36502;BME280;25393;46.108;3.390;2023-04-27T08:55:03;97892.31;;;19.43;66.41
36502;BME280;25393;46.108;3.390;2023-04-27T08:57:30;97894.66;;;19.81;64.88
36502;BME280;25393;46.108;3.390;2023-04-27T08:59:59;97892.22;;;20.03;64.88
36502;BME280;25393;46.108;3.390;2023-04-27T09:02:45;97891.66;;;20.71;62.08
36502;BME280;25393;46.108;3.390;2023-04-27T09:05:21;97898.25;;;21.15;61.52
36502;BME280;25393;46.108;3.390;2023-04-27T09:07:57;97897.94;;;21.39;58.13
36502;BME280;25393;46.108;3.390;2023-04-27T09:10:24;97894.50;;;21.72;58.49
36502;BME280;25393;46.108;3.390;2023-04-27T09:12:55;97882.00;;;21.83;56.17
36502;BME280;25393;46.108;3.390;2023-04-27T09:15:22;97884.19;;;21.53;57.15
36502;BME280;25393;46.108;3.390;2023-04-27T09:17:55;97890.47;;;21.58;56.63
36502;BME280;25393;46.108;3.390;2023-04-27T09:20:23;97878.69;;;21.64;56.68
36502;BME280;25393;46.108;3.390;2023-04-27T09:22:52;97892.28;;;21.69;56.60
36502;BME280;25393;46.108;3.390;2023-04-27T09:25:28;97885.25;;;21.85;54.21
36502;BME280;25393;46.108;3.390;2023-04-27T09:27:55;97877.63;;;22.27;54.10
36502;BME280;25393;46.108;3.390;2023-04-27T09:30:23;97890.91;;;22.50;51.67
36502;BME280;25393;46.108;3.390;2023-04-27T09:32:58;97892.50;;;22.29;52.13
36502;BME280;25393;46.108;3.390;2023-04-27T09:35:27;97873.88;;;21.95;53.60
36502;BME280;25393;46.108;3.390;2023-04-27T09:37:54;97897.19;;;21.89;55.60
36502;BME280;25393;46.108;3.390;2023-04-27T09:40:25;97889.28;;;21.82;53.54
36502;BME280;25393;46.108;3.390;2023-04-27T09:42:54;97885.84;;;21.87;52.36
36502;BME280;25393;46.108;3.390;2023-04-27T09:45:23;97896.81;;;21.80;51.72
36502;BME280;25393;46.108;3.390;2023-04-27T09:47:50;97892.34;;;22.19;51.99
36502;BME280;25393;46.108;3.390;2023-04-27T09:50:17;97887.19;;;22.89;51.18
36502;BME280;25393;46.108;3.390;2023-04-27T09:52:44;97883.63;;;23.32;49.25
36502;BME280;25393;46.108;3.390;2023-04-27T09:55:21;97888.50;;;23.84;45.69
36502;BME280;25393;46.108;3.390;2023-04-27T10:08:55;97868.84;;;25.29;42.59
36502;BME280;25393;46.108;3.390;2023-04-27T10:11:34;97873.28;;;25.66;39.63
36502;BME280;25393;46.108;3.390;2023-04-27T10:14:07;97866.81;;;25.72;41.88
36502;BME280;25393;46.108;3.390;2023-04-27T10:16:49;97870.06;;;26.09;39.68
36502;BME280;25393;46.108;3.390;2023-04-27T10:19:16;97869.53;;;26.38;39.28
36502;BME280;25393;46.108;3.390;2023-04-27T10:21:58;97873.78;;;26.89;40.56
36502;BME280;25393;46.108;3.390;2023-04-27T10:24:38;97875.22;;;27.30;38.92
36502;BME280;25393;46.108;3.390;2023-04-27T10:27:09;97863.06;;;27.67;36.83
36502;BME280;25393;46.108;3.390;2023-04-27T10:29:42;97870.44;;;27.02;37.08
36502;BME280;25393;46.108;3.390;2023-04-27T10:34:38;97869.50;;;27.32;36.54
36502;BME280;25393;46.108;3.390;2023-04-27T10:37:08;97864.34;;;27.79;34.54
36502;BME280;25393;46.108;3.390;2023-04-27T10:39:38;97853.97;;;27.87;36.15
36502;BME280;25393;46.108;3.390;2023-04-27T10:42:12;97849.94;;;28.13;35.78
36502;BME280;25393;46.108;3.390;2023-04-27T10:44:39;97855.16;;;28.67;34.45
36502;BME280;25393;46.108;3.390;2023-04-27T10:47:14;97859.25;;;29.36;34.45
36502;BME280;25393;46.108;3.390;2023-04-27T10:49:41;97846.78;;;29.48;32.62
36502;BME280;25393;46.108;3.390;2023-04-27T10:52:08;97852.97;;;29.35;33.51
36502;BME280;25393;46.108;3.390;2023-04-27T10:54:35;97834.06;;;28.96;31.67
36502;BME280;25393;46.108;3.390;2023-04-27T10:57:07;97840.50;;;29.29;34.53
36502;BME280;25393;46.108;3.390;2023-04-27T10:59:49;97840.53;;;29.48;33.79
36502;BME280;25393;46.108;3.390;2023-04-27T11:02:24;97835.63;;;29.82;32.83
36502;BME280;25393;46.108;3.390;2023-04-27T11:04:53;97835.44;;;30.11;33.30
36502;BME280;25393;46.108;3.390;2023-04-27T11:07:25;97824.34;;;30.67;33.25
36502;BME280;25393;46.108;3.390;2023-04-27T11:09:53;97822.50;;;30.62;33.13
36502;BME280;25393;46.108;3.390;2023-04-27T11:12:20;97809.22;;;30.10;33.15
36502;BME280;25393;46.108;3.390;2023-04-27T11:14:46;97821.38;;;30.04;32.08
36502;BME280;25393;46.108;3.390;2023-04-27T11:17:13;97809.81;;;29.93;32.44
36502;BME280;25393;46.108;3.390;2023-04-27T11:19:44;97806.53;;;29.91;31.45
36502;BME280;25393;46.108;3.390;2023-04-27T11:22:13;97814.75;;;29.35;31.45
36502;BME280;25393;46.108;3.390;2023-04-27T11:24:47;97819.16;;;28.12;33.69
36502;BME280;25393;46.108;3.390;2023-04-27T11:27:13;97822.81;;;27.59;34.86
36502;BME280;25393;46.108;3.390;2023-04-27T11:29:40;97819.72;;;27.31;35.69
36502;BME280;25393;46.108;3.390;2023-04-27T11:32:07;97816.06;;;27.02;36.67
36502;BME280;25393;46.108;3.390;2023-04-27T11:34:33;97812.63;;;26.76;37.07
36502;BME280;25393;46.108;3.390;2023-04-27T11:37:05;97818.94;;;26.57;38.77
36502;BME280;25393;46.108;3.390;2023-04-27T11:39:44;97813.50;;;26.62;36.78
36502;BME280;25393;46.108;3.390;2023-04-27T11:42:19;97815.63;;;26.75;37.07
36502;BME280;25393;46.108;3.390;2023-04-27T11:45:01;97812.25;;;27.03;36.95
36502;BME280;25393;46.108;3.390;2023-04-27T11:47:33;97808.75;;;26.98;35.62
36502;BME280;25393;46.108;3.390;2023-04-27T11:50:06;97800.28;;;26.20;37.21
36502;BME280;25393;46.108;3.390;2023-04-27T11:52:34;97807.34;;;26.26;37.59
36502;BME280;25393;46.108;3.390;2023-04-27T11:55:05;97809.50;;;26.34;38.73
36502;BME280;25393;46.108;3.390;2023-04-27T11:57:35;97810.53;;;26.58;38.95
36502;BME280;25393;46.108;3.390;2023-04-27T12:00:04;97809.16;;;27.25;36.68
36502;BME280;25393;46.108;3.390;2023-04-27T12:02:41;97796.88;;;27.33;35.40
36502;BME280;25393;46.108;3.390;2023-04-27T12:05:08;97789.00;;;27.70;34.12
36502;BME280;25393;46.108;3.390;2023-04-27T12:07:35;97786.53;;;28.02;34.33
36502;BME280;25393;46.108;3.390;2023-04-27T12:10:02;97799.72;;;28.24;33.43
36502;BME280;25393;46.108;3.390;2023-04-27T12:12:29;97786.41;;;28.46;32.99
36502;BME280;25393;46.108;3.390;2023-04-27T12:14:55;97782.91;;;28.64;35.23
36502;BME280;25393;46.108;3.390;2023-04-27T12:17:23;97783.06;;;28.78;34.10
36502;BME280;25393;46.108;3.390;2023-04-27T12:19:49;97776.25;;;29.55;35.04
36502;BME280;25393;46.108;3.390;2023-04-27T12:22:16;97760.72;;;30.61;33.18
36502;BME280;25393;46.108;3.390;2023-04-27T12:24:42;97770.22;;;31.54;29.71
36502;BME280;25393;46.108;3.390;2023-04-27T12:27:09;97785.44;;;32.13;28.76
36502;BME280;25393;46.108;3.390;2023-04-27T12:29:36;97782.94;;;32.26;31.01
36502;BME280;25393;46.108;3.390;2023-04-27T12:32:03;97784.19;;;32.50;30.08
36502;BME280;25393;46.108;3.390;2023-04-27T12:34:31;97775.47;;;32.48;26.97
36502;BME280;25393;46.108;3.390;2023-04-27T12:37:01;97778.75;;;32.28;30.20
36502;BME280;25393;46.108;3.390;2023-04-27T12:39:29;97788.28;;;31.28;30.51
36502;BME280;25393;46.108;3.390;2023-04-27T12:41:56;97784.22;;;30.76;32.25
36502;BME280;25393;46.108;3.390;2023-04-27T12:44:23;97784.50;;;31.15;32.53
36502;BME280;25393;46.108;3.390;2023-04-27T12:46:50;97785.34;;;31.52;32.01
36502;BME280;25393;46.108;3.390;2023-04-27T12:49:17;97779.09;;;32.04;31.96
36502;BME280;25393;46.108;3.390;2023-04-27T12:51:44;97779.19;;;31.68;31.83
36502;BME280;25393;46.108;3.390;2023-04-27T12:54:12;97779.03;;;31.51;31.56
36502;BME280;25393;46.108;3.390;2023-04-27T12:56:39;97779.06;;;30.75;30.40
36502;BME280;25393;46.108;3.390;2023-04-27T12:59:07;97786.28;;;29.60;32.05
36502;BME280;25393;46.108;3.390;2023-04-27T13:01:36;97780.00;;;29.22;33.72
36502;BME280;25393;46.108;3.390;2023-04-27T13:04:07;97789.34;;;28.97;34.00
36502;BME280;25393;46.108;3.390;2023-04-27T13:06:34;97791.66;;;29.27;32.83
36502;BME280;25393;46.108;3.390;2023-04-27T13:09:01;97776.94;;;29.80;33.30
36502;BME280;25393;46.108;3.390;2023-04-27T13:11:28;97780.25;;;30.41;33.62
36502;BME280;25393;46.108;3.390;2023-04-27T13:13:55;97779.50;;;31.17;31.56